createdAt,value
2018-04-13T00:00:02.287Z,8.50
2018-04-13T00:02:29.892Z,7.33
2018-04-13T00:04:57.492Z,6.97
2018-04-13T00:07:25.092Z,7.50
2018-04-13T00:09:52.747Z,9.67
2018-04-13T00:12:20.336Z,7.93
2018-04-13T00:14:47.923Z,8.70
2018-04-13T00:17:15.532Z,7.57
2018-04-13T00:19:43.169Z,7.17
2018-04-13T00:22:10.829Z,7.10
2018-04-13T00:24:38.432Z,6.73
2018-04-13T00:27:06.072Z,8.00
2018-04-13T00:29:33.750Z,6.83
2018-04-13T00:32:01.352Z,6.40
2018-04-13T00:34:28.965Z,7.17
2018-04-13T00:36:56.653Z,8.00
2018-04-13T00:39:24.314Z,6.67
2018-04-13T00:41:51.953Z,7.30
2018-04-13T00:44:19.668Z,7.80
2018-04-13T00:46:47.256Z,7.70
2018-04-13T00:49:14.848Z,7.63
2018-04-13T00:51:42.449Z,7.43
2018-04-13T00:54:10.042Z,7.27
2018-04-13T00:56:37.664Z,6.97
2018-04-13T00:59:05.264Z,7.37
2018-04-13T01:01:32.921Z,6.80
2018-04-13T01:04:00.523Z,7.57
2018-04-13T01:06:28.168Z,6.60
2018-04-13T01:08:55.769Z,6.87
2018-04-13T01:11:23.364Z,7.63
2018-04-13T01:13:51.037Z,7.20
2018-04-13T01:16:18.632Z,7.03
2018-04-13T01:18:46.240Z,6.80
2018-04-13T01:21:13.842Z,7.07
2018-04-13T01:23:41.460Z,8.00
2018-04-13T01:26:09.037Z,7.83
2018-04-13T01:28:36.726Z,7.70
2018-04-13T01:31:04.402Z,7.17
2018-04-13T01:33:32.000Z,6.20
2018-04-13T01:35:59.610Z,7.77
2018-04-13T01:38:27.273Z,7.23
2018-04-13T01:40:54.947Z,6.70
2018-04-13T01:43:22.605Z,6.17
2018-04-13T01:45:50.232Z,7.70
2018-04-13T01:48:17.890Z,7.07
2018-04-13T01:50:45.625Z,6.63
2018-04-13T01:53:13.238Z,5.60
2018-04-13T01:55:40.844Z,6.77
2018-04-13T01:58:08.530Z,6.33
2018-04-13T02:00:36.148Z,6.70
2018-04-13T02:03:03.752Z,6.37
2018-04-13T02:05:31.360Z,7.57
2018-04-13T02:07:59.033Z,7.10
2018-04-13T02:10:26.628Z,6.67
2018-04-13T02:12:54.298Z,8.50
2018-04-13T02:15:21.964Z,10.10
2018-04-13T02:17:49.553Z,8.90
2018-04-13T02:20:17.120Z,11.40
2018-04-13T02:22:44.682Z,10.57
2018-04-13T02:25:12.317Z,9.53
2018-04-13T02:27:39.885Z,9.60
2018-04-13T02:30:07.517Z,8.90
2018-04-13T02:32:35.085Z,6.77
2018-04-13T02:35:02.774Z,7.57
2018-04-13T02:37:30.350Z,7.10
2018-04-13T02:39:57.916Z,6.60
2018-04-13T02:42:25.551Z,6.43
2018-04-13T02:44:54.084Z,6.20
2018-04-13T02:47:21.653Z,6.77
2018-04-13T02:49:49.230Z,6.40
2018-04-13T02:52:16.817Z,6.20
2018-04-13T02:54:44.373Z,6.80
2018-04-13T02:57:12.013Z,7.03
2018-04-13T02:59:39.564Z,6.13
2018-04-13T03:02:07.125Z,8.90
2018-04-13T03:04:34.693Z,7.20
2018-04-13T03:07:02.252Z,7.63
2018-04-13T03:09:29.820Z,6.90
2018-04-13T03:11:57.441Z,7.83
2018-04-13T03:14:25.008Z,7.53
2018-04-13T03:16:52.584Z,9.00
2018-04-13T03:19:20.151Z,7.30
2018-04-13T03:21:47.700Z,6.73
2018-04-13T03:24:15.310Z,6.27
2018-04-13T03:26:42.999Z,7.90
2018-04-13T03:29:10.629Z,6.60
2018-04-13T03:31:38.189Z,7.00
2018-04-13T03:34:05.737Z,5.80
2018-04-13T03:36:33.292Z,6.73
2018-04-13T03:39:00.928Z,5.83
2018-04-13T03:41:28.582Z,7.70
2018-04-13T03:43:56.206Z,6.30
2018-04-13T03:46:23.765Z,7.13
2018-04-13T03:48:51.389Z,7.80
2018-04-13T03:51:18.959Z,8.00
2018-04-13T03:53:46.516Z,8.50
2018-04-13T03:56:14.149Z,8.30
2018-04-13T03:58:41.720Z,7.07
2018-04-13T04:01:09.292Z,9.60
2018-04-13T04:03:36.848Z,7.90
2018-04-13T04:06:04.481Z,7.10
2018-04-13T04:08:32.109Z,6.53
2018-04-13T04:10:59.748Z,6.13
2018-04-13T04:13:27.396Z,7.40
2018-04-13T04:15:54.968Z,7.30
2018-04-13T04:18:22.649Z,8.80
2018-04-13T04:21:02.636Z,9.33
2018-04-13T04:23:42.083Z,7.63
2018-04-13T04:26:28.089Z,7.83
2018-04-13T04:28:55.687Z,8.50
2018-04-13T04:31:23.244Z,9.33
2018-04-13T04:33:50.880Z,7.20
2018-04-13T04:36:18.497Z,6.60
2018-04-13T04:38:46.117Z,6.30
2018-04-13T04:41:13.695Z,5.50
2018-04-13T04:43:41.262Z,6.03
2018-04-13T04:46:08.828Z,6.10
2018-04-13T04:48:36.393Z,4.87
2018-04-13T04:51:03.964Z,5.77
2018-04-13T04:53:31.601Z,7.00
2018-04-13T04:55:59.233Z,8.00
2018-04-13T04:58:26.900Z,6.20
2018-04-13T05:00:54.520Z,7.37
2018-04-13T05:03:22.127Z,7.50
2018-04-13T05:05:49.687Z,5.50
2018-04-13T05:08:17.317Z,6.90
2018-04-13T05:10:44.880Z,8.97
2018-04-13T05:13:12.513Z,6.70
2018-04-13T05:15:40.076Z,6.60
2018-04-13T05:18:07.749Z,5.40
2018-04-13T05:20:35.301Z,4.40
2018-04-13T05:23:02.861Z,5.13
2018-04-13T05:25:30.424Z,4.50
2018-04-13T05:27:58.012Z,5.07
2018-04-13T05:30:25.634Z,4.77
2018-04-13T05:32:53.204Z,5.00
2018-04-13T05:35:20.897Z,4.53
2018-04-13T05:37:48.499Z,4.60
2018-04-13T05:40:16.113Z,4.60
2018-04-13T05:42:43.685Z,5.20
2018-04-13T05:45:11.257Z,5.33
2018-04-13T05:47:38.830Z,5.50
2018-04-13T05:50:07.210Z,5.07
2018-04-13T05:52:34.773Z,6.77
2018-04-13T05:55:02.433Z,7.77
2018-04-13T05:57:30.045Z,7.03
2018-04-13T05:59:57.606Z,4.73
2018-04-13T06:02:25.164Z,4.90
2018-04-13T06:04:52.793Z,6.30
2018-04-13T06:07:20.348Z,5.53
2018-04-13T06:09:47.916Z,5.63
2018-04-13T06:12:15.471Z,5.80
2018-04-13T06:14:43.523Z,5.77
2018-04-13T06:17:11.149Z,5.00
2018-04-13T06:19:38.760Z,5.77
2018-04-13T06:22:06.316Z,5.30
2018-04-13T06:24:33.868Z,4.80
2018-04-13T06:27:01.493Z,4.40
2018-04-13T06:29:29.105Z,4.77
2018-04-13T06:31:56.757Z,5.40
2018-04-13T06:34:24.319Z,7.03
2018-04-13T06:36:55.045Z,4.67
2018-04-13T06:39:19.525Z,4.20
2018-04-13T06:41:47.157Z,4.57
2018-04-13T06:44:14.716Z,4.10
2018-04-13T06:46:42.333Z,3.80
2018-04-13T06:49:09.962Z,4.67
2018-04-13T06:51:37.581Z,5.17
2018-04-13T06:54:05.140Z,5.20
2018-04-13T06:56:32.752Z,3.83
2018-04-13T06:59:00.326Z,5.33
2018-04-13T07:01:27.941Z,5.00
2018-04-13T07:03:55.516Z,4.27
2018-04-13T07:06:23.069Z,4.97
2018-04-13T07:08:50.686Z,4.50
2018-04-13T07:11:18.255Z,4.70
2018-04-13T07:13:45.846Z,4.37
2018-04-13T07:16:13.418Z,3.93
2018-04-13T07:18:40.977Z,4.87
2018-04-13T07:21:08.557Z,4.47
2018-04-13T07:23:36.125Z,4.10
2018-04-13T07:26:03.743Z,5.10
2018-04-13T07:28:31.312Z,5.23
2018-04-13T07:30:58.933Z,5.00
2018-04-13T07:33:26.504Z,3.83
2018-04-13T07:35:54.578Z,5.07
2018-04-13T07:38:21.719Z,4.93
2018-04-13T07:40:49.337Z,4.90
2018-04-13T07:43:17.196Z,4.47
2018-04-13T07:45:44.548Z,4.90
2018-04-13T07:48:12.111Z,5.03
2018-04-13T07:50:39.704Z,5.73
2018-04-13T07:53:07.297Z,4.60
2018-04-13T07:55:34.868Z,4.90
2018-04-13T07:58:02.801Z,4.83
2018-04-13T08:00:30.076Z,4.03
2018-04-13T08:02:57.984Z,4.33
2018-04-13T08:05:25.283Z,4.67
2018-04-13T08:07:52.853Z,4.40
2018-04-13T08:10:20.469Z,4.63
2018-04-13T08:12:48.032Z,4.10
2018-04-13T08:15:15.598Z,3.90
2018-04-13T08:17:43.178Z,4.93
2018-04-13T08:20:10.733Z,3.53
2018-04-13T08:22:38.432Z,5.40
2018-04-13T08:25:06.005Z,5.73
2018-04-13T08:27:33.577Z,5.20
2018-04-13T08:30:01.162Z,4.80
2018-04-13T08:32:28.721Z,4.90
2018-04-13T08:34:56.297Z,4.00
2018-04-13T08:37:23.860Z,5.07
2018-04-13T08:39:51.464Z,4.53
2018-04-13T08:42:19.068Z,4.20
2018-04-13T08:44:46.714Z,3.93
2018-04-13T08:47:14.304Z,4.13
2018-04-13T08:49:41.874Z,4.80
2018-04-13T08:52:09.452Z,3.90
2018-04-13T08:54:37.017Z,4.47
2018-04-13T08:57:04.594Z,4.53
2018-04-13T08:59:32.176Z,4.40
2018-04-13T09:01:59.793Z,3.40
2018-04-13T09:04:27.404Z,3.30
2018-04-13T09:06:54.974Z,4.23
2018-04-13T09:09:22.546Z,3.60
2018-04-13T09:11:50.156Z,3.67
2018-04-13T09:14:17.747Z,3.57
2018-04-13T09:16:45.296Z,2.93
2018-04-13T09:19:12.865Z,3.23
2018-04-13T09:21:40.477Z,3.90
2018-04-13T09:24:08.164Z,4.33
2018-04-13T09:26:35.790Z,3.27
2018-04-13T09:29:03.348Z,3.10
2018-04-13T09:31:30.941Z,3.60
2018-04-13T09:33:58.501Z,3.60
2018-04-13T09:36:26.069Z,3.60
2018-04-13T09:38:53.702Z,3.80
2018-04-13T09:41:21.293Z,3.27
2018-04-13T09:43:48.909Z,4.40
2018-04-13T09:46:16.529Z,4.43
2018-04-13T09:48:44.080Z,4.53
2018-04-13T09:51:11.636Z,2.80
2018-04-13T09:53:39.257Z,3.10
2018-04-13T09:56:06.891Z,3.50
2018-04-13T09:58:34.465Z,3.43
2018-04-13T10:01:02.071Z,3.43
2018-04-13T10:03:35.376Z,3.10
2018-04-13T10:06:03.006Z,3.87
2018-04-13T10:08:30.700Z,3.40
2018-04-13T10:10:58.334Z,3.50
2018-04-13T10:13:25.954Z,3.60
2018-04-13T10:15:53.577Z,3.17
2018-04-13T10:18:21.200Z,2.90
2018-04-13T10:20:48.825Z,3.47
2018-04-13T10:23:16.441Z,3.57
2018-04-13T10:25:44.120Z,3.30
2018-04-13T10:30:41.844Z,3.53
2018-04-13T10:33:09.414Z,4.30
2018-04-13T10:35:36.968Z,3.40
2018-04-13T10:38:04.543Z,3.83
2018-04-13T10:40:32.100Z,3.10
2018-04-13T10:42:59.665Z,3.17
2018-04-13T10:45:27.280Z,3.17
2018-04-13T10:47:54.900Z,3.40
2018-04-13T10:50:22.483Z,3.57
2018-04-13T10:52:50.105Z,4.03
2018-04-13T10:55:17.693Z,3.47
2018-04-13T10:57:45.301Z,2.97
2018-04-13T11:00:12.936Z,2.97
2018-04-13T11:02:40.489Z,3.37
2018-04-13T11:05:08.169Z,2.90
2018-04-13T11:07:35.785Z,3.60
2018-04-13T11:10:03.429Z,4.13
2018-04-13T11:12:31.015Z,4.00
2018-04-13T11:14:58.648Z,3.50
2018-04-13T11:17:26.272Z,3.40
2018-04-13T11:19:53.832Z,2.80
2018-04-13T11:22:21.517Z,2.80
2018-04-13T11:24:49.185Z,2.80
2018-04-13T11:27:16.752Z,3.53
2018-04-13T11:29:44.320Z,3.03
2018-04-13T11:32:11.939Z,3.40
2018-04-13T11:34:39.571Z,3.10
2018-04-13T11:37:07.147Z,3.45
2018-04-13T11:39:34.753Z,3.65
2018-04-13T11:42:02.372Z,3.37
2018-04-13T11:44:29.982Z,3.17
2018-04-13T11:46:57.618Z,3.95
2018-04-13T11:49:25.190Z,2.72
2018-04-13T11:51:52.827Z,2.60
2018-04-13T11:54:20.365Z,3.28
2018-04-13T11:56:47.932Z,3.78
2018-04-13T11:59:15.494Z,2.22
2018-04-13T12:01:43.148Z,2.75
2018-04-13T12:04:10.708Z,3.60
2018-04-13T12:06:38.325Z,3.17
2018-04-13T12:09:05.960Z,3.08
2018-04-13T12:11:33.520Z,3.15
2018-04-13T12:14:01.084Z,2.92
2018-04-13T12:16:28.704Z,2.85
2018-04-13T12:18:56.331Z,2.92
2018-04-13T12:21:23.897Z,3.85
2018-04-13T12:23:51.535Z,3.10
2018-04-13T12:26:19.092Z,3.10
2018-04-13T12:28:46.771Z,2.90
2018-04-13T12:31:14.431Z,3.55
2018-04-13T12:33:42.065Z,3.25
2018-04-13T12:36:09.647Z,3.55
2018-04-13T12:38:37.204Z,2.95
2018-04-13T12:41:04.909Z,3.33
2018-04-13T12:43:32.465Z,2.85
2018-04-13T12:46:00.089Z,2.67
2018-04-13T12:48:27.763Z,2.80
2018-04-13T12:50:55.441Z,3.53
2018-04-13T12:53:23.079Z,2.92
2018-04-13T12:55:50.650Z,2.67
2018-04-13T12:58:18.218Z,2.90
2018-04-13T13:00:45.837Z,3.10
2018-04-13T13:03:13.408Z,3.00
2018-04-13T13:05:40.960Z,3.40
2018-04-13T13:08:08.583Z,6.23
2018-04-13T13:10:36.144Z,4.10
2018-04-13T13:13:03.705Z,4.00
2018-04-13T13:15:31.278Z,3.80
2018-04-13T13:17:58.925Z,3.33
2018-04-13T13:20:26.579Z,3.87
2018-04-13T13:22:54.136Z,4.03
2018-04-13T13:25:21.681Z,3.83
2018-04-13T13:27:49.238Z,4.00
2018-04-13T13:30:16.911Z,4.10
2018-04-13T13:32:44.530Z,3.20
2018-04-13T13:35:12.153Z,3.87
2018-04-13T13:37:39.772Z,3.90
2018-04-13T13:40:07.346Z,4.33
2018-04-13T13:42:34.909Z,3.73
2018-04-13T13:45:02.588Z,4.33
2018-04-13T13:47:30.165Z,3.90
2018-04-13T13:49:57.781Z,3.63
2018-04-13T13:52:25.400Z,4.67
2018-04-13T13:54:52.989Z,4.07
2018-04-13T13:57:20.557Z,3.20
2018-04-13T13:59:48.181Z,4.23
2018-04-13T14:02:15.746Z,3.43
2018-04-13T14:04:43.318Z,4.20
2018-04-13T14:07:10.885Z,4.47
2018-04-13T14:09:38.501Z,7.37
2018-04-13T14:12:06.118Z,4.30
2018-04-13T14:14:33.677Z,3.50
2018-04-13T14:17:01.241Z,3.93
2018-04-13T14:19:28.897Z,3.73
2018-04-13T14:21:56.461Z,3.80
2018-04-13T14:24:24.016Z,3.70
2018-04-13T14:26:51.585Z,4.90
2018-04-13T14:29:19.145Z,3.97
2018-04-13T14:31:46.777Z,4.33
2018-04-13T14:34:14.360Z,4.37
2018-04-13T14:36:41.991Z,4.30
2018-04-13T14:39:10.449Z,4.10
2018-04-13T14:41:38.107Z,5.57
2018-04-13T14:44:05.687Z,4.00
2018-04-13T14:46:33.327Z,5.53
2018-04-13T14:49:00.973Z,4.67
2018-04-13T14:51:28.544Z,3.70
2018-04-13T14:53:56.152Z,4.40
2018-04-13T14:56:23.721Z,4.70
2018-04-13T14:58:51.290Z,4.73
2018-04-13T15:01:18.869Z,5.27
2018-04-13T15:03:46.436Z,5.20
2018-04-13T15:06:14.009Z,3.70
2018-04-13T15:08:41.567Z,4.47
2018-04-13T15:11:09.133Z,4.80
2018-04-13T15:13:36.745Z,5.17
2018-04-13T15:16:04.382Z,5.03
2018-04-13T15:18:32.011Z,5.17
2018-04-13T15:20:59.569Z,5.00
2018-04-13T15:23:27.136Z,5.20
2018-04-13T15:25:54.672Z,5.80
2018-04-13T15:28:22.273Z,5.20
2018-04-13T15:30:49.903Z,5.00
2018-04-13T15:33:17.523Z,5.20
2018-04-13T15:35:45.147Z,6.00
2018-04-13T15:38:12.746Z,5.30
2018-04-13T15:40:40.304Z,6.43
2018-04-13T15:43:07.865Z,5.27
2018-04-13T15:45:35.464Z,7.03
2018-04-13T15:48:03.036Z,6.63
2018-04-13T15:50:30.671Z,7.20
2018-04-13T15:52:58.238Z,6.73
2018-04-13T15:55:25.848Z,6.67
2018-04-13T15:57:53.413Z,6.13
2018-04-13T16:00:20.986Z,5.70
2018-04-13T16:02:48.554Z,6.10
2018-04-13T16:05:16.114Z,5.87
2018-04-13T16:07:43.691Z,5.40
2018-04-13T16:10:11.244Z,5.97
2018-04-13T16:12:38.815Z,6.00
2018-04-13T16:15:06.443Z,6.13
2018-04-13T16:17:34.060Z,5.47
2018-04-13T16:20:01.690Z,6.10
2018-04-13T16:22:29.262Z,5.73
2018-04-13T16:24:56.836Z,5.93
2018-04-13T16:27:24.400Z,7.63
2018-04-13T16:29:51.971Z,6.37
2018-04-13T16:32:19.532Z,5.83
2018-04-13T16:34:47.148Z,5.80
2018-04-13T16:37:14.708Z,5.77
2018-04-13T16:39:42.269Z,6.10
2018-04-13T16:42:09.841Z,5.30
2018-04-13T16:44:37.397Z,5.83
2018-04-13T16:47:04.965Z,6.03
2018-04-13T16:49:32.580Z,6.50
2018-04-13T16:52:00.230Z,5.50
2018-04-13T16:54:27.792Z,6.17
2018-04-13T16:56:55.390Z,5.27
2018-04-13T16:59:22.969Z,6.70
2018-04-13T17:01:50.592Z,22.63
2018-04-13T17:04:18.226Z,16.73
2018-04-13T17:06:45.791Z,10.40
2018-04-13T17:09:13.430Z,10.13
2018-04-13T17:11:40.994Z,8.40
2018-04-13T17:14:08.733Z,8.87
2018-04-13T17:16:36.352Z,7.30
2018-04-13T17:19:03.972Z,8.33
2018-04-13T17:21:31.605Z,8.50
2018-04-13T17:23:59.169Z,8.10
2018-04-13T17:26:26.820Z,9.60
2018-04-13T17:28:54.384Z,7.70
2018-04-13T17:31:21.995Z,6.80
2018-04-13T17:33:49.625Z,8.40
2018-04-13T17:36:17.254Z,6.90
2018-04-13T17:38:44.895Z,5.40
2018-04-13T17:41:12.529Z,4.97
2018-04-13T17:43:40.097Z,5.10
2018-04-13T17:46:07.642Z,4.47
2018-04-13T17:48:35.212Z,4.87
2018-04-13T17:51:02.776Z,4.93
2018-04-13T17:53:30.400Z,5.10
2018-04-13T17:55:58.058Z,5.63
2018-04-13T17:58:25.684Z,5.20
2018-04-13T18:00:53.352Z,4.73
2018-04-13T18:03:20.980Z,5.23
2018-04-13T18:05:48.613Z,4.87
2018-04-13T18:08:16.235Z,6.10
2018-04-13T18:10:43.865Z,4.73
2018-04-13T18:13:12.149Z,4.90
2018-04-13T18:15:39.726Z,5.17
2018-04-13T18:18:07.368Z,5.50
2018-04-13T18:20:34.937Z,5.47
2018-04-13T18:23:02.617Z,5.60
2018-04-13T18:25:30.240Z,6.23
2018-04-13T18:27:57.875Z,4.90
2018-04-13T18:30:25.497Z,5.30
2018-04-13T18:32:53.113Z,4.87
2018-04-13T18:35:20.680Z,5.90
2018-04-13T18:37:48.309Z,4.50
2018-04-13T18:40:15.876Z,5.50
2018-04-13T18:42:43.468Z,5.50
2018-04-13T18:45:11.105Z,5.80
2018-04-13T18:47:38.695Z,5.20
2018-04-13T18:50:06.324Z,5.30
2018-04-13T18:52:33.898Z,5.00
2018-04-13T18:55:01.579Z,5.10
2018-04-13T18:57:29.140Z,4.47
2018-04-13T18:59:56.765Z,5.60
2018-04-13T19:02:24.329Z,5.43
2018-04-13T19:04:51.909Z,5.70
2018-04-13T19:07:19.549Z,6.37
2018-04-13T19:09:47.103Z,5.67
2018-04-13T19:12:14.732Z,6.00
2018-04-13T19:14:42.296Z,5.90
2018-04-13T19:17:09.988Z,6.90
2018-04-13T19:19:37.548Z,6.67
2018-04-13T19:22:05.112Z,5.50
2018-04-13T19:24:32.744Z,5.87
2018-04-13T19:27:00.308Z,5.23
2018-04-13T19:29:27.877Z,6.20
2018-04-13T19:31:55.501Z,5.30
2018-04-13T19:34:23.082Z,6.17
2018-04-13T19:36:50.644Z,6.43
2018-04-13T19:39:18.264Z,5.47
2018-04-13T19:41:45.830Z,4.60
2018-04-13T19:44:13.400Z,7.53
2018-04-13T19:46:41.033Z,9.43
2018-04-13T19:49:08.669Z,6.03
2018-04-13T19:51:36.246Z,6.60
2018-04-13T19:54:03.813Z,8.30
2018-04-13T19:56:31.384Z,5.80
2018-04-13T19:58:58.944Z,5.17
2018-04-13T20:01:26.572Z,6.70
2018-04-13T20:03:54.128Z,6.30
2018-04-13T20:06:21.689Z,5.10
2018-04-13T20:08:49.256Z,5.33
2018-04-13T20:11:16.877Z,7.23
2018-04-13T20:13:44.468Z,10.00
2018-04-13T20:16:12.096Z,8.10
2018-04-13T20:18:39.664Z,6.93
2018-04-13T20:21:07.289Z,7.17
2018-04-13T20:23:34.925Z,6.87
2018-04-13T20:26:02.545Z,5.70
2018-04-13T20:28:30.208Z,6.63
2018-04-13T20:30:57.775Z,7.40
2018-04-13T20:33:25.337Z,6.77
2018-04-13T20:35:52.913Z,6.50
2018-04-13T20:38:20.541Z,7.10
2018-04-13T20:40:48.116Z,7.20
2018-04-13T20:43:15.699Z,6.07
2018-04-13T20:45:43.269Z,6.50
2018-04-13T20:48:10.908Z,6.30
2018-04-13T20:50:38.528Z,6.67
2018-04-13T20:53:06.098Z,7.13
2018-04-13T20:55:33.679Z,7.77
2018-04-13T20:58:01.256Z,6.57
2018-04-13T21:00:28.821Z,6.73
2018-04-13T21:02:56.401Z,6.70
2018-04-13T21:05:23.968Z,6.20
2018-04-13T21:07:51.541Z,6.40
2018-04-13T21:10:19.108Z,7.63
2018-04-13T21:12:46.732Z,7.40
2018-04-13T21:15:14.307Z,6.60
2018-04-13T21:17:41.870Z,8.83
2018-04-13T21:20:09.442Z,6.70
2018-04-13T21:22:37.012Z,6.00
2018-04-13T21:25:04.668Z,6.60
2018-04-13T21:27:32.242Z,6.43
2018-04-13T21:29:59.916Z,6.80
2018-04-13T21:32:27.476Z,6.23
2018-04-13T21:34:55.035Z,7.10
2018-04-13T21:37:22.661Z,6.57
2018-04-13T21:39:50.246Z,6.97
2018-04-13T21:42:17.820Z,6.80
2018-04-13T21:44:45.395Z,7.23
2018-04-13T21:47:12.969Z,6.03
2018-04-13T21:49:40.528Z,6.30
2018-04-13T21:52:08.197Z,6.07
2018-04-13T21:54:35.760Z,7.03
2018-04-13T21:57:03.387Z,5.50
2018-04-13T21:59:30.980Z,6.20
2018-04-13T22:01:58.597Z,5.87
2018-04-13T22:04:26.186Z,5.80
2018-04-13T22:06:53.773Z,6.80
2018-04-13T22:09:21.400Z,6.60
2018-04-13T22:11:48.970Z,6.50
2018-04-13T22:14:28.573Z,5.67
2018-04-13T22:16:56.151Z,6.37
2018-04-13T22:19:23.727Z,5.50
2018-04-13T22:21:51.360Z,6.73
2018-04-13T22:24:18.924Z,5.77
2018-04-13T22:26:46.497Z,6.00
2018-04-13T22:29:14.063Z,5.40
2018-04-13T22:31:41.729Z,5.60
2018-04-13T22:34:09.294Z,6.40
2018-04-13T22:36:36.931Z,6.37
2018-04-13T22:39:04.642Z,6.07
2018-04-13T22:41:32.208Z,5.93
2018-04-13T22:43:59.778Z,6.37
2018-04-13T22:46:27.408Z,6.03
2018-04-13T22:48:55.032Z,6.80
2018-04-13T22:51:22.655Z,7.13
2018-04-13T22:53:50.237Z,7.00
2018-04-13T22:56:17.821Z,6.73
2018-04-13T22:58:45.450Z,6.10
2018-04-13T23:01:13.030Z,7.30
2018-04-13T23:03:40.668Z,6.67
2018-04-13T23:06:08.266Z,6.83
2018-04-13T23:08:35.900Z,6.87
2018-04-13T23:11:03.509Z,7.57
2018-04-13T23:13:31.072Z,7.83
2018-04-13T23:15:58.680Z,8.20
2018-04-13T23:18:26.256Z,8.47
2018-04-13T23:20:53.841Z,7.90
2018-04-13T23:23:21.475Z,7.43
2018-04-13T23:25:49.064Z,7.70
2018-04-13T23:28:16.680Z,7.10
2018-04-13T23:30:44.253Z,6.93
2018-04-13T23:33:11.822Z,5.80
2018-04-13T23:35:39.447Z,7.27
2018-04-13T23:38:07.082Z,6.53
2018-04-13T23:40:34.693Z,7.13
2018-04-13T23:43:02.285Z,6.50
2018-04-13T23:45:29.911Z,6.60
2018-04-13T23:47:57.545Z,5.90
2018-04-13T23:50:25.131Z,6.90
2018-04-13T23:52:52.716Z,7.20
2018-04-13T23:55:20.340Z,6.90
2018-04-13T23:57:47.911Z,7.17
